Time;durP1;ratioP1;P1;durP2;ratioP2;P2;SDS_P1;SDS_P2;PMS_P1;PMS_P2;Temp;Humidity;BMP_temperature;BMP_pressure;BME280_temperature;BME280_humidity;BME280_pressure;Samples;Min_cycle;Max_cycle;Signal;HPM_P1;HPM_P2
2023/06/24 00:02:08;;;;;;;2.90;2.70;;;;;;;19.39;50.98;98045.91;4968212;28;20187;-79
2023/06/24 00:04:34;;;;;;;3.42;3.13;;;;;;;19.27;51.31;98044.44;4961189;28;20199;-77
2023/06/24 00:07:00;;;;;;;3.28;2.97;;;;;;;19.16;51.46;98040.34;4947080;28;20249;-79
2023/06/24 00:09:29;;;;;;;3.22;2.92;;;;;;;19.07;52.01;98044.63;4966852;28;20197;-78
2023/06/24 00:11:56;;;;;;;3.30;3.05;;;;;;;18.80;52.39;98031.88;4965417;28;20659;-79
2023/06/24 00:14:26;;;;;;;3.90;3.38;;;;;;;18.81;52.64;98031.63;4953760;28;20121;-79
2023/06/24 00:16:56;;;;;;;3.00;2.80;;;;;;;18.71;52.71;98048.34;4968703;28;20215;-79
2023/06/24 00:19:28;;;;;;;3.17;2.90;;;;;;;18.65;53.07;98036.22;4945872;28;20208;-79
2023/06/24 00:21:54;;;;;;;3.50;3.20;;;;;;;18.65;53.31;98038.88;4969351;28;20032;-79
2023/06/24 00:24:25;;;;;;;3.78;3.25;;;;;;;18.67;54.26;98041.25;4967093;28;20292;-78
2023/06/24 00:26:51;;;;;;;4.35;3.40;;;;;;;18.67;53.81;98041.25;4941732;28;20158;-79
2023/06/24 00:29:17;;;;;;;3.53;3.13;;;;;;;18.65;53.68;98038.88;4952990;28;20269;-79
2023/06/24 00:31:42;;;;;;;3.17;2.80;;;;;;;18.63;53.38;98040.22;4950885;28;20688;-79
2023/06/24 00:34:08;;;;;;;3.70;3.22;;;;;;;18.56;54.17;98042.38;4949238;28;20234;-78
2023/06/24 00:36:35;;;;;;;3.40;3.10;;;;;;;18.64;53.26;98036.50;4982685;28;20191;-79
2023/06/24 00:39:03;;;;;;;3.85;3.20;;;;;;;18.69;52.89;98031.97;4957836;28;20371;-79
2023/06/24 00:41:28;;;;;;;4.00;3.33;;;;;;;18.69;52.72;98042.53;4931573;28;20424;-78
2023/06/24 00:43:54;;;;;;;3.38;3.08;;;;;;;18.66;52.72;98039.66;4936563;28;20496;-77
2023/06/24 00:46:19;;;;;;;4.07;3.33;;;;;;;18.61;53.16;98029.13;4932263;28;20244;-77
2023/06/24 00:48:45;;;;;;;4.18;3.42;;;;;;;18.49;53.99;98027.66;4939163;28;20188;-77
2023/06/24 00:51:10;;;;;;;3.42;3.13;;;;;;;18.45;54.07;98039.78;4931957;28;20243;-77
2023/06/24 00:53:36;;;;;;;3.53;2.97;;;;;;;18.30;54.36;98032.78;4964026;28;20254;-77
2023/06/24 00:56:02;;;;;;;3.90;3.50;;;;;;;18.08;55.16;98035.03;4946520;28;20306;-77
2023/06/24 00:58:30;;;;;;;3.50;3.20;;;;;;;18.00;55.57;98043.50;4943438;28;20498;-79
2023/06/24 01:00:57;;;;;;;3.72;3.28;;;;;;;17.98;56.45;98045.63;4943562;28;20290;-77
2023/06/24 01:03:26;;;;;;;3.90;3.50;;;;;;;17.98;56.72;98046.41;4933038;23;20208;-85
2023/06/24 01:05:53;;;;;;;3.97;3.67;;;;;;;17.90;56.49;98039.84;4921964;28;20114;-84
2023/06/24 01:08:22;;;;;;;3.60;3.30;;;;;;;17.87;56.81;98055.41;4912309;28;20165;-84
2023/06/24 01:10:49;;;;;;;4.93;4.03;;;;;;;17.87;57.35;98047.50;4896491;28;20107;-84
2023/06/24 01:13:15;;;;;;;3.25;2.97;;;;;;;17.73;56.50;98044.63;4915151;28;20271;-85
2023/06/24 01:15:40;;;;;;;3.83;3.53;;;;;;;18.13;55.25;98042.91;4893267;28;20667;-85
2023/06/24 01:18:29;;;;;;;4.00;3.60;;;;;;;18.39;55.09;98046.19;4913426;28;20291;-85
2023/06/24 01:20:57;;;;;;;3.63;3.33;;;;;;;18.39;55.00;98050.69;4911238;28;20220;-85
2023/06/24 01:23:29;;;;;;;3.67;3.20;;;;;;;18.39;55.29;98054.09;4911232;28;20319;-85
2023/06/24 01:26:36;;;;;;;3.47;3.15;;;;;;;18.42;55.09;98052.75;4929384;28;20650;-85
2023/06/24 01:29:46;;;;;;;2.95;2.70;;;;;;;18.41;54.72;98049.31;4910393;28;20128;-85
2023/06/24 01:32:44;;;;;;;3.20;2.92;;;;;;;18.36;54.60;98045.94;4944452;28;20732;-85
2023/06/24 01:35:17;;;;;;;3.67;3.38;;;;;;;18.28;54.89;98056.00;4900041;28;20170;-85
2023/06/24 01:37:47;;;;;;;3.45;3.13;;;;;;;18.18;54.92;98050.78;4910761;28;20678;-85
2023/06/24 01:40:20;;;;;;;4.13;3.63;;;;;;;18.13;55.18;98046.31;4926481;28;20284;-84
2023/06/24 01:42:47;;;;;;;3.53;3.22;;;;;;;18.10;55.54;98051.34;4922164;28;20212;-85
2023/06/24 01:45:16;;;;;;;4.05;3.65;;;;;;;17.98;56.43;98024.53;4922052;28;20300;-84
2023/06/24 01:47:46;;;;;;;3.90;3.42;;;;;;;18.10;56.02;98049.50;4894907;28;20544;-85
2023/06/24 01:50:12;;;;;;;4.18;3.65;;;;;;;18.09;56.09;98053.19;4917935;28;20264;-85
2023/06/24 01:52:41;;;;;;;3.50;3.20;;;;;;;18.08;56.02;98049.00;4901298;28;20192;-84
2023/06/24 01:55:08;;;;;;;3.53;3.22;;;;;;;18.09;56.58;98058.44;4924629;28;20188;-85
2023/06/24 01:57:34;;;;;;;3.70;3.35;;;;;;;18.09;56.35;98047.13;4941500;28;20250;-84
2023/06/24 02:00:00;;;;;;;4.20;3.80;;;;;;;18.08;56.17;98045.56;4911633;28;20256;-85
2023/06/24 02:02:27;;;;;;;3.80;3.40;;;;;;;18.10;56.16;98048.72;4921585;28;20243;-84
2023/06/24 02:04:56;;;;;;;5.53;3.78;;;;;;;18.19;55.61;98051.56;4892489;28;20236;-84
2023/06/24 02:07:22;;;;;;;3.83;3.25;;;;;;;18.06;55.92;98042.41;4910998;28;20112;-84
2023/06/24 02:09:48;;;;;;;4.13;3.40;;;;;;;18.09;56.10;98053.19;4885759;28;20217;-84
2023/06/24 02:12:13;;;;;;;4.10;3.70;;;;;;;18.07;56.69;98047.41;4897961;28;20239;-85
2023/06/24 02:14:39;;;;;;;5.07;4.05;;;;;;;18.03;56.65;98046.38;4904933;28;20262;-85
2023/06/24 02:17:06;;;;;;;3.40;3.10;;;;;;;18.03;56.76;98040.34;4918280;28;20112;-84
2023/06/24 02:19:33;;;;;;;4.35;3.95;;;;;;;18.02;56.96;98036.09;4910842;28;20201;-85
2023/06/24 02:21:59;;;;;;;4.20;3.85;;;;;;;18.05;56.90;98041.63;4908279;28;20287;-84
2023/06/24 02:24:26;;;;;;;4.82;4.35;;;;;;;18.05;57.08;98041.63;4909279;28;20193;-85
2023/06/24 02:26:53;;;;;;;4.07;3.55;;;;;;;17.95;57.14;98037.19;4908401;28;20452;-84
2023/06/24 02:29:19;;;;;;;4.35;3.25;;;;;;;17.90;56.94;98029.28;4942137;28;20130;-85
2023/06/24 02:31:44;;;;;;;4.15;3.75;;;;;;;17.93;56.70;98038.53;4906867;28;20727;-84
2023/06/24 02:34:10;;;;;;;5.45;4.22;;;;;;;17.90;57.30;98033.78;4911251;28;20206;-85
2023/06/24 02:36:35;;;;;;;4.53;4.13;;;;;;;17.89;56.91;98034.84;4905064;28;20253;-85
2023/06/24 02:39:01;;;;;;;3.92;3.60;;;;;;;17.77;57.26;98030.66;4897284;28;20302;-84
2023/06/24 02:41:26;;;;;;;4.35;3.60;;;;;;;17.82;57.36;98044.84;4893957;28;20368;-85
2023/06/24 02:43:51;;;;;;;3.90;3.53;;;;;;;17.75;57.66;98038.03;4906572;28;20721;-85
2023/06/24 02:46:17;;;;;;;3.97;3.65;;;;;;;17.64;57.90;98031.22;4896394;28;20631;-85
2023/06/24 02:48:44;;;;;;;3.50;3.15;;;;;;;17.64;57.82;98031.22;4911201;28;20174;-85
2023/06/24 02:51:10;;;;;;;4.63;4.13;;;;;;;17.61;58.03;98050.19;4895330;28;20328;-85
2023/06/24 02:53:38;;;;;;;4.72;3.88;;;;;;;17.67;57.85;98059.66;4892111;28;20280;-84
2023/06/24 02:56:05;;;;;;;4.80;4.28;;;;;;;17.53;58.45;98050.75;4896653;28;20252;-85
2023/06/24 02:58:31;;;;;;;4.50;3.58;;;;;;;17.57;58.09;98054.44;4909493;28;20186;-85
2023/06/24 03:01:00;;;;;;;4.05;3.75;;;;;;;17.54;58.52;98047.06;4910998;28;20088;-84
2023/06/24 03:03:27;;;;;;;4.22;3.83;;;;;;;17.43;58.58;98046.31;4793292;28;3919932;-84
2023/06/24 03:05:56;;;;;;;5.18;4.72;;;;;;;17.25;59.21;98034.47;4910675;28;20269;-84
2023/06/24 03:08:25;;;;;;;4.90;4.20;;;;;;;17.28;58.87;98055.00;4945067;28;20530;-85
2023/06/24 03:10:57;;;;;;;4.07;3.63;;;;;;;17.33;58.46;98049.75;4914855;28;20245;-85
2023/06/24 03:13:23;;;;;;;4.28;3.78;;;;;;;17.16;58.66;98051.88;4893891;28;20303;-84
2023/06/24 03:15:48;;;;;;;4.25;3.80;;;;;;;17.08;58.68;98045.28;4908988;28;20639;-84
2023/06/24 03:18:14;;;;;;;4.28;3.40;;;;;;;17.10;58.73;98048.47;4913916;28;20284;-84
2023/06/24 03:20:39;;;;;;;4.28;3.88;;;;;;;17.04;58.98;98063.47;4909707;28;20414;-85
2023/06/24 03:23:06;;;;;;;3.80;3.50;;;;;;;17.00;59.57;98049.25;4894976;28;20642;-85
2023/06/24 03:25:32;;;;;;;4.32;3.92;;;;;;;16.97;59.72;98054.28;4898121;28;20366;-85
2023/06/24 03:27:57;;;;;;;4.03;3.63;;;;;;;16.92;59.85;98052.41;4929365;28;20667;-84
2023/06/24 03:30:22;;;;;;;4.07;3.72;;;;;;;16.85;59.91;98049.28;4916486;28;20240;-84
2023/06/24 03:32:48;;;;;;;4.03;3.60;;;;;;;16.87;60.23;98051.63;4911852;28;20346;-84
2023/06/24 03:35:13;;;;;;;4.38;3.97;;;;;;;16.88;60.41;98061.91;4911325;28;20512;-84
2023/06/24 03:37:39;;;;;;;3.83;3.42;;;;;;;16.86;60.25;98069.25;4898092;28;20209;-84
2023/06/24 03:40:05;;;;;;;4.45;4.07;;;;;;;16.80;60.61;98050.03;4917373;28;20209;-84
2023/06/24 03:42:30;;;;;;;3.88;3.58;;;;;;;16.81;60.35;98051.59;4912224;28;20716;-84
2023/06/24 03:44:56;;;;;;;4.57;4.18;;;;;;;16.90;60.22;98048.50;4888256;28;20287;-84
2023/06/24 03:47:21;;;;;;;3.70;3.40;;;;;;;16.85;59.94;98046.63;4896827;28;20213;-84
2023/06/24 03:49:46;;;;;;;4.88;4.38;;;;;;;16.89;60.12;98042.41;4935577;28;20289;-84
2023/06/24 03:52:12;;;;;;;4.32;3.88;;;;;;;16.90;60.06;98054.53;4902027;28;20107;-83
2023/06/24 03:54:38;;;;;;;4.18;3.80;;;;;;;16.85;59.95;98052.69;4928145;28;20102;-83
2023/06/24 03:57:04;;;;;;;4.22;3.83;;;;;;;16.94;59.58;98055.56;4902643;28;20213;-84
2023/06/24 03:59:29;;;;;;;4.30;3.90;;;;;;;16.87;60.31;98054.28;4922136;28;20245;-84
2023/06/24 04:01:55;;;;;;;5.65;3.50;;;;;;;16.80;59.90;98043.97;4910363;28;20271;-83
2023/06/24 04:04:20;;;;;;;4.00;3.60;;;;;;;16.78;60.45;98046.88;4904936;28;20213;-83
2023/06/24 04:06:45;;;;;;;4.10;3.70;;;;;;;16.86;60.91;98058.72;4906845;28;20171;-85
2023/06/24 04:09:11;;;;;;;4.65;3.95;;;;;;;16.85;61.43;98057.94;4921637;28;20777;-84
2023/06/24 04:11:36;;;;;;;4.50;4.10;;;;;;;16.83;61.49;98054.75;4912035;28;20189;-84
2023/06/24 04:14:01;;;;;;;3.97;3.58;;;;;;;16.79;61.43;98058.97;4895324;28;20674;-84
2023/06/24 04:16:27;;;;;;;4.30;3.90;;;;;;;16.86;61.27;98056.09;4890938;28;20198;-84
2023/06/24 04:18:52;;;;;;;4.15;3.78;;;;;;;17.01;61.08;98066.59;4907513;28;20220;-84
2023/06/24 04:21:18;;;;;;;4.50;4.10;;;;;;;17.07;60.64;98070.03;4927788;28;20693;-84
2023/06/24 04:23:43;;;;;;;3.85;3.55;;;;;;;17.18;59.95;98065.56;4883205;28;20219;-85
2023/06/24 04:26:09;;;;;;;4.43;4.03;;;;;;;17.24;60.68;98067.13;4925373;28;20155;-84
2023/06/24 04:28:34;;;;;;;4.32;3.92;;;;;;;17.35;60.17;98078.44;4914549;28;20088;-84
2023/06/24 04:30:59;;;;;;;4.32;3.60;;;;;;;17.48;60.44;98084.97;4935014;28;20316;-84
2023/06/24 04:33:25;;;;;;;4.30;3.90;;;;;;;17.50;60.54;98075.78;4928941;28;20209;-85
2023/06/24 04:35:51;;;;;;;5.05;4.35;;;;;;;17.57;59.87;98086.03;4925953;28;20212;-84
2023/06/24 04:38:18;;;;;;;4.68;4.07;;;;;;;17.68;59.42;98089.41;4914126;28;20167;-85
2023/06/24 04:40:44;;;;;;;4.63;4.22;;;;;;;17.65;60.25;98090.75;4909677;28;20316;-85
2023/06/24 04:43:10;;;;;;;4.60;4.20;;;;;;;17.65;60.69;98077.59;4894936;28;20548;-84
2023/06/24 04:45:35;;;;;;;4.60;4.20;;;;;;;17.70;60.88;98074.94;4909479;28;20227;-85
2023/06/24 04:48:00;;;;;;;4.25;3.88;;;;;;;17.77;61.28;98085.97;4901381;28;20195;-84
2023/06/24 04:50:26;;;;;;;4.57;4.20;;;;;;;17.86;61.65;98091.50;4889527;28;20281;-85
2023/06/24 04:52:53;;;;;;;4.47;4.07;;;;;;;17.94;61.78;98093.59;4913868;28;20635;-84
2023/06/24 04:55:19;;;;;;;4.40;4.00;;;;;;;17.88;61.79;98072.78;4910960;28;20181;-84
2023/06/24 04:57:44;;;;;;;5.10;4.30;;;;;;;18.08;61.49;98083.25;4927547;28;20217;-84
2023/06/24 05:00:10;;;;;;;5.50;5.00;;;;;;;18.28;59.93;98076.28;4905696;28;20189;-85
2023/06/24 05:02:35;;;;;;;4.68;4.28;;;;;;;18.35;58.81;98076.78;4906142;28;20247;-84
2023/06/24 05:05:00;;;;;;;4.50;4.10;;;;;;;18.41;58.82;98086.25;4897971;28;20224;-84
2023/06/24 05:07:26;;;;;;;5.00;4.60;;;;;;;18.42;58.51;98074.66;4910459;28;20666;-84
2023/06/24 05:09:51;;;;;;;4.45;4.13;;;;;;;18.49;58.13;98083.03;4909499;28;20295;-84
2023/06/24 05:12:17;;;;;;;5.03;4.45;;;;;;;18.63;58.01;98085.06;4926507;28;20245;-84
2023/06/24 05:14:42;;;;;;;4.82;4.43;;;;;;;18.54;57.85;98079.56;4925414;28;20171;-84
2023/06/24 05:17:07;;;;;;;5.43;4.75;;;;;;;18.50;57.78;98074.03;4888567;28;20171;-84
2023/06/24 05:19:33;;;;;;;4.55;4.15;;;;;;;18.68;58.29;98085.81;4894043;28;20228;-84
2023/06/24 05:21:59;;;;;;;4.50;4.10;;;;;;;18.78;57.84;98094.72;4911702;28;20147;-85
2023/06/24 05:24:24;;;;;;;4.93;4.18;;;;;;;18.87;57.68;98101.78;4910071;28;20254;-85
2023/06/24 05:26:50;;;;;;;4.93;4.43;;;;;;;18.92;57.31;98090.44;4893989;28;20274;-84
2023/06/24 05:29:16;;;;;;;4.85;4.38;;;;;;;19.04;57.40;98103.28;4926600;28;20249;-84
2023/06/24 05:31:42;;;;;;;4.57;4.15;;;;;;;19.11;57.24;98092.38;4905387;28;20304;-85
2023/06/24 05:34:07;;;;;;;4.90;4.40;;;;;;;19.20;57.19;98102.06;4908857;28;20368;-84
2023/06/24 05:36:33;;;;;;;4.63;4.22;;;;;;;19.25;56.83;98096.72;4898673;28;20208;-86
2023/06/24 05:38:58;;;;;;;5.47;4.93;;;;;;;19.43;57.23;98110.28;4914124;28;20193;-85
2023/06/24 05:41:24;;;;;;;4.75;4.32;;;;;;;19.51;56.58;98091.22;4926157;28;20936;-85
2023/06/24 05:43:49;;;;;;;4.75;4.15;;;;;;;19.67;56.29;98105.03;4891977;28;20170;-85
2023/06/24 05:46:14;;;;;;;4.60;4.20;;;;;;;19.86;56.51;98107.78;4920819;28;20389;-86
2023/06/24 05:48:40;;;;;;;4.28;3.88;;;;;;;20.01;56.25;98104.97;4944659;28;20196;-86
2023/06/24 05:51:05;;;;;;;4.85;4.43;;;;;;;20.15;55.97;98096.31;4902899;28;20579;-84
2023/06/24 05:53:30;;;;;;;4.97;4.57;;;;;;;20.36;55.83;98108.22;4924675;28;20666;-85
2023/06/24 05:55:56;;;;;;;4.80;4.40;;;;;;;20.61;54.40;98110.81;4926827;28;20697;-86
2023/06/24 05:58:21;;;;;;;4.32;3.92;;;;;;;20.70;54.11;98095.88;4910137;28;20210;-84
2023/06/24 06:00:47;;;;;;;4.65;4.25;;;;;;;21.00;53.78;98110.50;4908348;28;20247;-85
2023/06/24 06:03:12;;;;;;;4.95;4.40;;;;;;;21.22;53.36;98119.69;4891612;28;20658;-84
2023/06/24 06:05:37;;;;;;;4.85;4.20;;;;;;;21.41;53.07;98117.75;4890186;28;20317;-85
2023/06/24 06:08:03;;;;;;;5.03;4.63;;;;;;;21.64;52.69;98117.91;4926184;28;20213;-85
2023/06/24 06:10:28;;;;;;;4.50;4.13;;;;;;;21.82;51.54;98117.03;4920182;28;20243;-86
2023/06/24 06:12:55;;;;;;;4.10;3.80;;;;;;;21.87;51.69;98103.69;4895822;28;20452;-86
2023/06/24 06:15:20;;;;;;;4.60;4.20;;;;;;;22.17;51.79;98117.41;4920871;28;20200;-86
2023/06/24 06:17:46;;;;;;;4.45;4.15;;;;;;;22.34;51.30;98124.00;4931652;28;20228;-85
2023/06/24 06:20:11;;;;;;;4.53;4.13;;;;;;;22.52;51.00;98122.31;4911659;28;20320;-86
2023/06/24 06:22:38;;;;;;;4.80;4.40;;;;;;;22.56;51.54;98112.66;4907310;28;20103;-84
2023/06/24 06:25:07;;;;;;;4.60;4.22;;;;;;;22.83;51.77;98098.50;4899290;28;20170;-86
2023/06/24 06:27:32;;;;;;;4.90;4.50;;;;;;;23.00;50.58;98117.19;4931469;28;20204;-85
2023/06/24 06:29:58;;;;;;;4.60;4.20;;;;;;;23.06;49.76;98109.13;4908298;28;20253;-86
2023/06/24 06:32:23;;;;;;;4.13;3.83;;;;;;;23.27;48.75;98115.53;4925021;28;20607;-85
2023/06/24 06:34:49;;;;;;;4.40;4.10;;;;;;;23.36;48.47;98120.88;4897959;28;20216;-86
2023/06/24 06:37:14;;;;;;;4.90;4.50;;;;;;;23.43;48.68;98112.47;4948373;28;20789;-87
2023/06/24 06:39:39;;;;;;;4.95;4.55;;;;;;;23.79;47.74;98114.19;4911971;28;20214;-86
2023/06/24 06:42:05;;;;;;;5.03;4.55;;;;;;;24.03;46.69;98119.91;4922738;28;20208;-86
2023/06/24 06:44:30;;;;;;;4.57;4.18;;;;;;;24.29;45.40;98119.19;4915659;28;20368;-86
2023/06/24 06:46:56;;;;;;;4.78;4.40;;;;;;;24.41;44.79;98107.91;4891547;28;20276;-85
2023/06/24 06:49:22;;;;;;;4.55;4.15;;;;;;;24.48;43.90;98111.66;4904275;28;20649;-86
2023/06/24 06:51:47;;;;;;;5.07;4.57;;;;;;;24.60;43.91;98113.75;4910590;28;20165;-86
2023/06/24 06:54:13;;;;;;;5.22;4.72;;;;;;;24.93;43.79;98107.16;4898448;28;20204;-86
2023/06/24 06:56:39;;;;;;;5.05;4.63;;;;;;;25.09;43.38;98110.09;4909839;28;20197;-86
2023/06/24 06:59:04;;;;;;;4.72;4.32;;;;;;;25.22;43.06;98099.25;4896721;28;20591;-86
2023/06/24 07:01:30;;;;;;;5.03;4.50;;;;;;;25.63;42.46;98112.31;4909565;28;20103;-87
2023/06/24 07:41:56;;;;;;;4.88;4.47;;;;;;;28.33;36.72;98095.66;5204508;22;20203;-87
2023/06/24 07:54:42;;;;;;;4.95;4.55;;;;;;;28.42;35.86;98092.84;5505985;23;20734;-87
2023/06/24 08:17:42;;;;;;;4.68;4.25;;;;;;;28.43;33.87;98095.19;4937886;28;20205;-86
2023/06/24 08:20:08;;;;;;;4.25;3.95;;;;;;;28.63;34.43;98080.06;4918504;28;20209;-86
2023/06/24 08:22:33;;;;;;;5.10;4.75;;;;;;;28.83;34.63;98089.00;4915496;28;20219;-87
2023/06/24 08:24:59;;;;;;;4.70;4.40;;;;;;;29.02;34.77;98071.50;5022440;23;20116;-87
2023/06/24 08:35:10;;;;;;;4.63;4.32;;;;;;;29.06;34.12;98083.06;4941302;28;20213;-86
2023/06/24 08:37:36;;;;;;;4.28;3.97;;;;;;;28.53;34.66;98080.50;4888179;28;20301;-87
2023/06/24 08:40:04;;;;;;;4.63;4.32;;;;;;;28.45;35.72;98079.53;4881642;28;20186;-87
2023/06/24 08:42:30;;;;;;;4.90;4.50;;;;;;;28.52;34.83;98081.66;4896375;28;20289;-87
2023/06/24 08:44:55;;;;;;;4.40;4.10;;;;;;;28.64;34.67;98088.88;4883212;28;20501;-86
2023/06/24 08:47:24;;;;;;;4.28;3.97;;;;;;;28.76;34.26;98078.88;4883861;28;20375;-86
2023/06/24 08:49:55;;;;;;;5.20;4.72;;;;;;;28.95;33.38;98066.72;4886329;28;20210;-86
2023/06/24 08:52:21;;;;;;;5.03;4.55;;;;;;;29.20;34.12;98067.38;5600151;23;20034;-86
2023/06/24 08:54:50;;;;;;;4.72;4.32;;;;;;;29.24;32.99;98068.25;4974228;23;20402;-84
2023/06/24 08:57:15;;;;;;;5.22;4.55;;;;;;;29.09;33.38;98071.66;4919918;28;20647;-85
2023/06/24 08:59:41;;;;;;;4.22;3.90;;;;;;;29.10;33.48;98074.00;4915736;28;20268;-86
2023/06/24 09:02:06;;;;;;;5.07;4.68;;;;;;;29.03;33.42;98083.75;4913531;28;20219;-86
2023/06/24 09:04:32;;;;;;;5.47;4.07;;;;;;;29.07;33.01;98069.34;5168537;23;20317;-86
2023/06/24 09:06:58;;;;;;;4.15;3.85;;;;;;;29.18;31.97;98074.97;4902377;28;20183;-86
2023/06/24 09:09:24;;;;;;;4.85;4.50;;;;;;;28.98;32.93;98066.03;4902407;23;20092;-86
2023/06/24 09:12:00;;;;;;;4.82;4.40;;;;;;;29.18;33.37;98074.97;4901585;28;20392;-87
2023/06/24 09:14:26;;;;;;;4.35;4.05;;;;;;;28.86;34.20;98064.22;4927604;28;20220;-85
2023/06/24 09:17:01;;;;;;;4.32;4.03;;;;;;;29.27;33.60;98069.44;4908559;28;20190;-86
2023/06/24 09:19:29;;;;;;;4.55;4.15;;;;;;;29.49;34.18;98065.38;4917372;28;20534;-86
2023/06/24 09:21:59;;;;;;;4.43;4.13;;;;;;;29.88;33.47;98057.47;4910621;28;20424;-85
2023/06/24 09:24:28;;;;;;;4.55;4.13;;;;;;;30.28;32.81;98053.69;4917218;28;20587;-85
2023/06/24 09:26:56;;;;;;;4.63;4.20;;;;;;;30.58;32.39;98047.78;4910052;28;20138;-85
2023/06/24 09:29:26;;;;;;;4.78;4.45;;;;;;;31.01;31.31;98050.47;4916575;28;20192;-86
2023/06/24 09:31:52;;;;;;;4.88;4.47;;;;;;;30.86;30.80;98054.78;4917671;28;20261;-85
2023/06/24 09:34:19;;;;;;;4.95;4.55;;;;;;;30.39;31.82;98041.28;4907670;28;20295;-86
2023/06/24 09:36:45;;;;;;;3.80;3.60;;;;;;;30.27;31.36;98046.75;4922377;28;20247;-86
2023/06/24 09:39:11;;;;;;;4.90;4.60;;;;;;;29.85;31.20;98042.03;4933027;28;20243;-86
2023/06/24 09:41:40;;;;;;;4.28;3.97;;;;;;;29.79;32.42;98032.72;4920567;28;20615;-86
2023/06/24 09:44:11;;;;;;;4.53;4.22;;;;;;;30.20;31.13;98043.94;4906498;28;20302;-86
2023/06/24 09:46:37;;;;;;;4.55;4.20;;;;;;;30.67;31.27;98042.94;5175478;23;20214;-85
2023/06/24 09:49:05;;;;;;;4.22;3.92;;;;;;;31.16;31.48;98036.88;5109480;23;20226;-84
2023/06/24 09:51:38;;;;;;;4.82;4.00;;;;;;;31.69;28.78;98027.34;4900252;28;20274;-85
2023/06/24 09:54:05;;;;;;;4.35;3.95;;;;;;;31.68;28.60;98028.47;4898247;28;20593;-85
2023/06/24 09:56:33;;;;;;;4.15;3.83;;;;;;;31.79;27.33;98024.00;4893726;28;20350;-85
2023/06/24 09:58:58;;;;;;;3.72;3.53;;;;;;;31.88;28.89;98024.50;4996030;23;20285;-86
2023/06/24 10:01:24;;;;;;;4.40;4.10;;;;;;;32.06;27.87;98029.34;4907260;28;20233;-85
2023/06/24 10:06:25;;;;;;;4.18;3.92;;;;;;;31.68;28.45;98017.69;5072785;23;20206;-86
2023/06/24 10:08:51;;;;;;;4.72;4.32;;;;;;;31.76;27.38;98024.72;4881118;28;20272;-85
2023/06/24 10:11:16;;;;;;;4.10;3.90;;;;;;;31.57;27.30;98017.53;4902861;28;20254;-85
2023/06/24 10:13:42;;;;;;;4.28;3.95;;;;;;;32.05;27.55;98017.03;4877368;28;20201;-87
2023/06/24 10:16:07;;;;;;;4.60;4.22;;;;;;;31.33;28.33;98019.47;4960967;23;20187;-86
2023/06/24 10:18:36;;;;;;;3.90;3.60;;;;;;;31.86;27.70;98013.31;4890356;28;20206;-86
2023/06/24 10:21:02;;;;;;;4.10;3.80;;;;;;;32.38;26.40;98005.47;4894042;28;20291;-85
2023/06/24 10:25:59;;;;;;;4.47;4.18;;;;;;;32.67;28.12;98001.19;4989294;22;20808;-87
2023/06/24 10:28:25;;;;;;;4.55;4.00;;;;;;;32.48;28.94;98001.34;4885259;28;20283;-88
2023/06/24 10:30:56;;;;;;;4.30;3.97;;;;;;;32.73;27.39;97998.13;4884483;28;20225;-87
2023/06/24 10:33:23;;;;;;;4.68;4.38;;;;;;;33.03;26.65;97998.00;4898916;28;20241;-88
2023/06/24 10:35:50;;;;;;;4.43;4.10;;;;;;;33.37;26.58;97998.66;4907284;28;20270;-86
2023/06/24 10:38:16;;;;;;;4.18;3.88;;;;;;;32.96;25.69;97981.78;5939295;23;20021;-87
2023/06/24 10:43:25;;;;;;;3.75;3.50;;;;;;;33.38;26.98;97988.63;5393811;22;20283;-86
2023/06/24 10:45:58;;;;;;;3.83;3.58;;;;;;;33.14;26.60;97990.00;4908858;28;20143;-86
2023/06/24 10:50:58;;;;;;;4.85;4.50;;;;;;;32.16;27.15;97974.81;4993008;23;20234;-87
2023/06/24 10:53:24;;;;;;;3.88;3.67;;;;;;;31.93;27.05;97973.00;4914446;28;20253;-86
2023/06/24 10:55:49;;;;;;;4.82;4.47;;;;;;;31.67;26.75;97967.66;5012898;23;20144;-86
2023/06/24 10:58:15;;;;;;;4.03;3.72;;;;;;;31.36;27.89;97970.31;4918726;23;20123;-86
2023/06/24 11:00:41;;;;;;;4.43;4.13;;;;;;;31.06;27.71;97967.56;5020398;23;20276;-87
2023/06/24 11:10:46;;;;;;;4.30;4.00;;;;;;;30.35;28.82;97970.56;5668834;22;20291;-87
2023/06/24 11:13:12;;;;;;;4.18;3.80;;;;;;;30.14;30.95;97973.59;5154729;23;20227;-87
2023/06/24 11:18:13;;;;;;;4.72;4.32;;;;;;;30.84;28.74;97944.13;5212169;22;20256;-86
2023/06/24 11:20:39;;;;;;;4.22;3.85;;;;;;;31.09;30.01;97948.00;4917778;28;20213;-88
2023/06/24 11:28:19;;;;;;;4.13;3.78;;;;;;;30.76;28.49;97948.59;4945152;23;20194;-88
2023/06/24 11:54:45;;;;;;;4.28;3.97;;;;;;;30.40;29.68;97929.19;5007286;22;20284;-85
2023/06/24 11:59:40;;;;;;;4.40;4.10;;;;;;;30.51;27.85;97921.31;4954068;23;20224;-86
2023/06/24 12:02:05;;;;;;;4.70;4.40;;;;;;;30.51;28.92;97916.72;4890337;28;20207;-86
2023/06/24 12:04:31;;;;;;;5.00;4.60;;;;;;;30.66;29.86;97920.44;4953840;23;20294;-84
2023/06/24 12:07:02;;;;;;;4.85;4.53;;;;;;;30.61;29.25;97910.75;4892653;28;21586;-83
2023/06/24 12:09:29;;;;;;;4.50;4.20;;;;;;;30.19;28.91;97918.81;4892215;28;20211;-87
2023/06/24 12:16:58;;;;;;;5.25;4.85;;;;;;;30.27;29.87;97895.56;5073677;22;20242;-86
2023/06/24 12:19:23;;;;;;;4.65;4.25;;;;;;;30.60;29.02;97890.38;5319601;23;20115;-86
2023/06/24 12:21:49;;;;;;;4.60;4.30;;;;;;;30.80;29.80;97882.25;5140544;22;20170;-85
2023/06/24 12:24:14;;;;;;;4.25;3.95;;;;;;;31.22;28.89;97894.75;4908903;23;20137;-84
2023/06/24 12:26:40;;;;;;;4.55;4.25;;;;;;;31.54;27.45;97889.06;5244265;23;20100;-85
2023/06/24 12:29:05;;;;;;;4.78;4.38;;;;;;;31.55;28.61;97887.94;5564118;23;20065;-86
2023/06/24 12:31:31;;;;;;;4.38;4.07;;;;;;;31.53;27.91;97880.22;5304651;22;20020;-87
2023/06/24 12:39:06;;;;;;;4.43;4.13;;;;;;;31.41;28.32;97893.88;4962166;23;20321;-85
2023/06/24 12:41:33;;;;;;;4.53;4.22;;;;;;;31.43;27.75;97888.91;5084896;23;20292;-84
2023/06/24 12:46:32;;;;;;;4.33;3.93;;;;;;;31.17;29.49;97873.56;5825460;23;20350;-85
2023/06/24 12:48:57;;;;;;;5.20;4.80;;;;;;;30.90;29.08;97884.31;5650123;23;20761;-86
2023/06/24 12:51:23;;;;;;;4.88;4.57;;;;;;;30.32;28.84;97871.84;4930497;28;20201;-86
2023/06/24 12:56:23;;;;;;;4.97;4.60;;;;;;;30.30;29.60;97870.63;5416285;22;20239;-86
2023/06/24 12:58:48;;;;;;;3.95;3.75;;;;;;;30.25;29.50;97869.03;5035691;23;20153;-85
2023/06/24 13:01:14;;;;;;;4.72;4.32;;;;;;;30.31;29.50;97859.53;5136357;23;20277;-85
2023/06/24 13:03:39;;;;;;;5.25;4.78;;;;;;;30.31;30.41;97859.53;4919971;28;20176;-86
2023/06/24 13:06:05;;;;;;;4.95;4.65;;;;;;;30.32;30.07;97863.00;5665290;23;20224;-86
2023/06/24 13:08:30;;;;;;;4.93;4.43;;;;;;;30.28;29.50;97859.47;5074818;23;20183;-86
2023/06/24 13:10:56;;;;;;;4.60;4.28;;;;;;;30.21;28.16;97870.88;4930874;28;20258;-86
2023/06/24 13:13:21;;;;;;;5.00;4.70;;;;;;;30.18;28.56;97848.19;4898890;28;20276;-85
2023/06/24 13:18:22;;;;;;;4.90;4.50;;;;;;;30.57;27.78;97853.47;5190303;22;20104;-84
2023/06/24 13:20:47;;;;;;;5.03;4.63;;;;;;;30.88;27.14;97850.84;4907365;28;20175;-84
2023/06/24 13:23:13;;;;;;;5.20;4.47;;;;;;;30.94;27.57;97857.50;5078892;23;20146;-83
2023/06/24 13:25:38;;;;;;;5.00;4.68;;;;;;;30.99;27.55;97852.56;5063497;23;20228;-84
2023/06/24 13:28:04;;;;;;;4.50;4.20;;;;;;;31.10;29.11;97857.31;5043269;23;20256;-84
2023/06/24 13:30:29;;;;;;;5.25;4.75;;;;;;;30.91;28.07;97823.22;5063759;23;20188;-85
2023/06/24 13:35:24;;;;;;;4.95;4.65;;;;;;;30.63;27.76;97835.13;4947161;28;20183;-87
2023/06/24 13:37:50;;;;;;;5.18;4.70;;;;;;;30.62;28.26;97853.19;4940658;23;20297;-87
2023/06/24 13:40:15;;;;;;;5.05;4.65;;;;;;;30.53;28.19;97835.75;5190415;23;20937;-85
2023/06/24 13:42:41;;;;;;;5.35;4.95;;;;;;;30.43;28.35;97845.97;4962201;23;20105;-86
2023/06/24 13:45:07;;;;;;;4.90;4.53;;;;;;;30.26;28.38;97851.78;5083253;23;20111;-85
2023/06/24 13:47:32;;;;;;;5.15;4.65;;;;;;;30.27;29.06;97842.59;4977189;23;20241;-85
2023/06/24 13:49:58;;;;;;;5.22;4.75;;;;;;;30.09;28.72;97842.28;4893090;28;20375;-85
2023/06/24 13:52:28;;;;;;;4.65;4.35;;;;;;;30.06;29.85;97824.22;5372060;23;20112;-86
2023/06/24 13:54:53;;;;;;;5.65;4.65;;;;;;;30.25;29.52;97834.13;5495837;23;20408;-86
2023/06/24 13:57:19;;;;;;;4.93;4.63;;;;;;;30.43;29.62;97835.22;5313113;23;20199;-84
2023/06/24 13:59:44;;;;;;;4.97;4.55;;;;;;;30.47;28.50;97835.28;5220429;23;20295;-85
2023/06/24 14:02:11;;;;;;;5.45;4.95;;;;;;;30.13;29.92;97835.06;4906091;28;20021;-87